Time;durP1;ratioP1;P1;durP2;ratioP2;P2;SDS_P1;SDS_P2;PMS_P1;PMS_P2;Temp;Humidity;BMP_temperature;BMP_pressure;BME280_temperature;BME280_humidity;BME280_pressure;Samples;Min_cycle;Max_cycle;Signal;HPM_P1;HPM_P2
2021/10/07 00:01:36;;;;;;;;;;;12.30;99.90;;;;;;8385855;28;20309;-72
2021/10/07 00:05:38;;;;;;;;;;;12.20;99.90;;;;;;8385779;28;20296;-72
2021/10/07 00:09:40;;;;;;;;;;;12.10;99.90;;;;;;8391718;28;19920;-73
2021/10/07 00:13:42;;;;;;;;;;;12.10;99.90;;;;;;8389616;28;19927;-72
2021/10/07 00:17:46;;;;;;;;;;;12.10;99.90;;;;;;8379845;28;19921;-72
2021/10/07 00:21:48;;;;;;;;;;;12.10;99.90;;;;;;8376097;28;20410;-73
2021/10/07 00:25:50;;;;;;;;;;;12.00;99.90;;;;;;8390077;28;20449;-72
2021/10/07 00:29:55;;;;;;;;;;;12.00;99.90;;;;;;8387529;28;19929;-72
2021/10/07 00:34:12;;;;;;;;;;;11.90;99.90;;;;;;8389950;28;19928;-72
2021/10/07 00:42:34;;;;;;;;;;;11.90;99.90;;;;;;8393621;28;19924;-72
2021/10/07 00:46:45;;;;;;;;;;;11.80;99.90;;;;;;8375495;28;19929;-72
2021/10/07 00:50:48;;;;;;;;;;;11.80;99.90;;;;;;8391136;28;19962;-73
2021/10/07 00:54:52;;;;;;;;;;;11.80;99.90;;;;;;8392449;28;20380;-73
2021/10/07 00:58:53;;;;;;;;;;;11.70;99.90;;;;;;8395725;28;20367;-73
2021/10/07 01:02:55;;;;;;;;;;;11.70;99.90;;;;;;8388604;28;20364;-72
2021/10/07 01:06:56;;;;;;;;;;;11.60;99.90;;;;;;8390954;28;20017;-72
2021/10/07 01:10:58;;;;;;;;;;;11.60;99.90;;;;;;8373692;28;19920;-73
2021/10/07 01:15:00;;;;;;;;;;;11.60;99.90;;;;;;8393550;28;19920;-72
2021/10/07 01:19:02;;;;;;;;;;;11.60;99.90;;;;;;8391343;28;19921;-72
2021/10/07 01:23:04;;;;;;;;;;;11.60;99.90;;;;;;8372739;28;19978;-73
2021/10/07 01:27:06;;;;;;;;;;;11.60;99.90;;;;;;8391518;28;20020;-72
2021/10/07 01:31:08;;;;;;;;;;;11.60;99.90;;;;;;8390445;28;19920;-72
2021/10/07 01:35:10;;;;;;;;;;;11.50;99.90;;;;;;8386181;28;20007;-73
2021/10/07 01:39:12;;;;;;;;;;;11.50;99.90;;;;;;8394789;28;20245;-72
2021/10/07 01:43:14;;;;;;;;;;;11.60;99.90;;;;;;8410358;28;20356;-72
2021/10/07 01:47:15;;;;;;;;;;;11.50;99.90;;;;;;8392209;28;20299;-72
2021/10/07 01:51:17;;;;;;;;;;;11.50;99.90;;;;;;8374446;28;20384;-73
2021/10/07 01:55:19;;;;;;;;;;;11.40;99.90;;;;;;8374416;28;19997;-73
2021/10/07 01:59:20;;;;;;;;;;;11.40;99.90;;;;;;8393416;28;19978;-72
2021/10/07 02:03:22;;;;;;;;;;;11.40;99.90;;;;;;8379152;28;19932;-72
2021/10/07 02:07:24;;;;;;;;;;;11.30;99.90;;;;;;8391504;28;19920;-72
2021/10/07 02:11:26;;;;;;;;;;;11.30;99.90;;;;;;8391019;28;25071;-72
2021/10/07 02:15:27;;;;;;;;;;;11.20;99.90;;;;;;8388860;28;20305;-73
2021/10/07 02:19:29;;;;;;;;;;;11.20;99.90;;;;;;8388148;28;19924;-72
2021/10/07 02:23:31;;;;;;;;;;;11.10;99.90;;;;;;8391020;28;20003;-72
2021/10/07 02:27:33;;;;;;;;;;;11.10;99.90;;;;;;8385796;28;25061;-73
2021/10/07 02:31:34;;;;;;;;;;;11.00;99.90;;;;;;8389558;28;19966;-72
2021/10/07 02:35:36;;;;;;;;;;;10.90;99.90;;;;;;8393149;28;19931;-73
2021/10/07 02:39:38;;;;;;;8.50;3.47;;;10.90;99.90;;;;;;8394547;28;20051;-73
2021/10/07 02:43:40;;;;;;;21.45;3.95;;;10.90;99.90;;;;;;8384282;28;20880;-73
2021/10/07 02:47:43;;;;;;;7.47;3.90;;;10.90;99.90;;;;;;8389164;28;20113;-73
2021/10/07 02:51:44;;;;;;;;;;;10.80;99.90;;;;;;8391813;28;20057;-73
2021/10/07 02:55:46;;;;;;;;;;;10.80;99.90;;;;;;8391596;28;25135;-72
2021/10/07 02:59:48;;;;;;;;;;;10.80;99.90;;;;;;8382847;28;19920;-72
2021/10/07 03:03:49;;;;;;;;;;;10.80;99.90;;;;;;8390259;28;20364;-72
2021/10/07 03:07:51;;;;;;;14.45;3.63;;;10.80;99.90;;;;;;8392394;28;19920;-72
2021/10/07 03:11:53;;;;;;;7.53;3.33;;;10.70;99.90;;;;;;8383427;28;20098;-73
2021/10/07 03:15:55;;;;;;;;;;;10.70;99.90;;;;;;8364023;28;20044;-72
2021/10/07 03:19:56;;;;;;;;;;;10.60;99.90;;;;;;8381884;28;19924;-72
2021/10/07 03:23:58;;;;;;;;;;;10.60;99.90;;;;;;8361190;28;20344;-73
2021/10/07 03:28:00;;;;;;;;;;;10.60;99.90;;;;;;8382891;28;19965;-72
2021/10/07 03:32:02;;;;;;;;;;;10.60;99.90;;;;;;8385979;28;19920;-72
2021/10/07 03:36:04;;;;;;;;;;;10.60;99.90;;;;;;8383839;28;19927;-73
2021/10/07 03:40:06;;;;;;;;;;;10.50;99.90;;;;;;8387347;28;19921;-73
2021/10/07 03:44:08;;;;;;;;;;;10.60;99.90;;;;;;8389979;28;19927;-73
2021/10/07 03:48:10;;;;;;;;;;;10.50;99.90;;;;;;8390420;28;19920;-73
2021/10/07 03:52:11;;;;;;;;;;;10.50;99.90;;;;;;8386308;28;20421;-72
2021/10/07 03:56:13;;;;;;;;;;;10.50;99.90;;;;;;8388271;28;19924;-72
2021/10/07 04:00:16;;;;;;;;;;;10.50;99.90;;;;;;8383038;28;19924;-73
2021/10/07 04:04:18;;;;;;;;;;;10.50;99.90;;;;;;8382867;28;19997;-73
2021/10/07 04:08:19;;;;;;;;;;;10.50;99.90;;;;;;8388680;28;25174;-73
2021/10/07 04:12:21;;;;;;;;;;;10.50;99.90;;;;;;8386502;28;20405;-73
2021/10/07 04:16:24;;;;;;;;;;;10.40;99.90;;;;;;8388627;28;19924;-72
2021/10/07 04:20:26;;;;;;;;;;;10.40;99.90;;;;;;8381750;28;20352;-73
2021/10/07 04:24:27;;;;;;;;;;;10.40;99.90;;;;;;8379329;28;19958;-73
2021/10/07 04:28:29;;;;;;;;;;;10.30;99.90;;;;;;8389755;28;19924;-73
2021/10/07 04:32:31;;;;;;;;;;;10.30;99.90;;;;;;8387922;28;20025;-72
2021/10/07 04:36:33;;;;;;;;;;;10.20;99.90;;;;;;8396571;28;20317;-72
2021/10/07 04:40:36;;;;;;;;;;;10.20;99.90;;;;;;8385925;28;19920;-73
2021/10/07 04:44:37;;;;;;;;;;;10.10;99.90;;;;;;8371312;28;20019;-73
2021/10/07 04:48:39;;;;;;;;;;;10.10;99.90;;;;;;8383522;28;19927;-73
2021/10/07 04:52:41;;;;;;;;;;;10.10;99.90;;;;;;8379387;28;20067;-73
2021/10/07 04:56:43;;;;;;;;;;;10.10;99.90;;;;;;8390012;28;19939;-72
2021/10/07 05:00:44;;;;;;;;;;;10.10;99.90;;;;;;8383063;28;19927;-73
2021/10/07 05:04:46;;;;;;;;;;;10.10;99.90;;;;;;8384785;28;19934;-72
2021/10/07 05:08:51;;;;;;;;;;;10.00;99.90;;;;;;8387130;28;19920;-73
2021/10/07 05:12:53;;;;;;;;;;;10.00;99.90;;;;;;8366990;28;19928;-73
2021/10/07 05:16:54;;;;;;;;;;;10.00;99.90;;;;;;8384540;28;19924;-72
2021/10/07 05:20:56;;;;;;;;;;;10.00;99.90;;;;;;8392674;28;20023;-73
2021/10/07 05:24:58;;;;;;;;;;;10.00;99.90;;;;;;8388270;28;19969;-72
2021/10/07 05:28:59;;;;;;;;;;;10.00;99.90;;;;;;8408648;28;19928;-72
2021/10/07 05:33:01;;;;;;;;;;;10.00;99.90;;;;;;8378274;28;20599;-72
2021/10/07 05:37:03;;;;;;;;;;;10.00;99.90;;;;;;8372620;28;19928;-72
2021/10/07 05:41:05;;;;;;;;;;;10.10;99.90;;;;;;8392806;28;19932;-73
2021/10/07 05:45:10;;;;;;;;;;;10.10;99.90;;;;;;8411422;28;20382;-72
2021/10/07 05:49:13;;;;;;;;;;;10.10;99.90;;;;;;8407011;28;20006;-72
2021/10/07 05:53:15;;;;;;;;;;;10.10;99.90;;;;;;8392129;28;20494;-72
2021/10/07 05:57:17;;;;;;;;;;;10.10;99.90;;;;;;8393843;28;19950;-72
2021/10/07 06:01:19;;;;;;;;;;;10.10;99.90;;;;;;8377177;28;20560;-72
2021/10/07 06:05:20;;;;;;;;;;;10.10;99.90;;;;;;8396214;28;19931;-72
2021/10/07 06:09:22;;;;;;;;;;;10.10;99.90;;;;;;8385736;28;19920;-72
2021/10/07 06:13:24;;;;;;;;;;;10.10;99.90;;;;;;8404670;28;19966;-73
2021/10/07 06:17:25;;;;;;;;;;;10.10;99.90;;;;;;8392882;28;20009;-73
2021/10/07 06:21:27;;;;;;;;;;;10.10;99.90;;;;;;8388650;28;20352;-72
2021/10/07 06:25:34;;;;;;;;;;;10.10;99.90;;;;;;8403359;28;20037;-72
2021/10/07 06:29:35;;;;;;;;;;;10.20;99.90;;;;;;8384470;28;19920;-72
2021/10/07 06:33:37;;;;;;;;;;;10.20;99.90;;;;;;8384285;28;19924;-72
2021/10/07 06:37:39;;;;;;;;;;;10.30;99.90;;;;;;8387093;28;19927;-72
2021/10/07 06:41:41;;;;;;;;;;;10.30;99.90;;;;;;8385901;28;19924;-73
2021/10/07 06:45:42;;;;;;;;;;;10.30;99.90;;;;;;8386137;28;20295;-72
2021/10/07 06:49:44;;;;;;;;;;;10.40;99.90;;;;;;8390858;28;20284;-72
2021/10/07 06:53:49;;;;;;;;;;;10.40;99.90;;;;;;8392007;28;19928;-72
2021/10/07 06:57:51;;;;;;;;;;;10.50;99.90;;;;;;8398444;28;19928;-72
2021/10/07 07:01:53;;;;;;;;;;;10.50;99.90;;;;;;8389482;28;19928;-74
2021/10/07 07:05:54;;;;;;;;;;;10.60;99.90;;;;;;8388349;28;19930;-72
2021/10/07 07:09:56;;;;;;;;;;;10.60;99.90;;;;;;8387606;28;19920;-72
2021/10/07 07:14:14;;;;;;;;;;;10.70;99.90;;;;;;8385304;28;19934;-72
2021/10/07 07:18:15;;;;;;;;;;;10.70;99.90;;;;;;8388945;28;19924;-73
2021/10/07 07:22:17;;;;;;;;;;;10.80;99.90;;;;;;8368835;28;19925;-72
2021/10/07 07:26:19;;;;;;;;;;;10.90;99.90;;;;;;8356868;28;19929;-72
2021/10/07 07:30:20;;;;;;;;;;;10.90;99.90;;;;;;8355104;28;19921;-72
2021/10/07 07:34:22;;;;;;;;;;;11.00;99.90;;;;;;8356581;28;19924;-72
2021/10/07 07:38:24;;;;;;;;;;;11.00;99.90;;;;;;8358072;28;19928;-72
2021/10/07 07:42:25;;;;;;;9.82;4.57;;;11.00;99.90;;;;;;8355300;28;19958;-72
2021/10/07 07:46:27;;;;;;;;;;;11.00;99.90;;;;;;8356649;28;20127;-73
2021/10/07 07:50:29;;;;;;;;;;;11.10;99.90;;;;;;8353753;28;20016;-72
2021/10/07 07:54:31;;;;;;;;;;;11.10;99.90;;;;;;8337604;28;20364;-72
2021/10/07 07:58:33;;;;;;;;;;;11.20;99.90;;;;;;8354076;28;19925;-72
2021/10/07 08:02:47;;;;;;;;;;;11.20;99.90;;;;;;8361689;28;19929;-72
2021/10/07 08:06:49;;;;;;;;;;;11.20;99.90;;;;;;8354536;28;20319;-72
2021/10/07 08:10:51;;;;;;;;;;;11.20;99.90;;;;;;8375469;28;19982;-72
2021/10/07 08:14:56;;;;;;;;;;;11.20;99.90;;;;;;8354266;28;19935;-72
2021/10/07 08:18:58;;;;;;;;;;;11.20;99.90;;;;;;8366156;28;19978;-72
2021/10/07 08:23:00;;;;;;;;;;;11.20;99.90;;;;;;8354996;28;19943;-72
2021/10/07 08:27:03;;;;;;;;;;;11.20;99.90;;;;;;8356198;28;19958;-72
2021/10/07 08:31:04;;;;;;;;;;;11.30;99.90;;;;;;8354051;28;19927;-72
2021/10/07 08:35:06;;;;;;;;;;;11.30;99.90;;;;;;8355471;28;19921;-72
2021/10/07 08:39:09;;;;;;;;;;;11.40;99.90;;;;;;8358596;28;25091;-72
2021/10/07 08:43:11;;;;;;;;;;;11.50;99.90;;;;;;8368358;28;19989;-72
2021/10/07 08:47:15;;;;;;;;;;;11.60;99.90;;;;;;8353521;28;25125;-72
2021/10/07 08:51:17;;;;;;;;;;;11.60;99.90;;;;;;8355677;28;25053;-72
2021/10/07 08:55:19;;;;;;;13.25;5.00;;;11.70;99.90;;;;;;8355561;28;19929;-72
2021/10/07 08:59:21;;;;;;;11.50;5.00;;;11.70;99.90;;;;;;8358060;28;20061;-72
2021/10/07 09:03:24;;;;;;;8.52;5.38;;;11.70;99.90;;;;;;8362310;28;20500;-72
2021/10/07 09:07:27;;;;;;;9.95;6.30;;;11.80;99.90;;;;;;8361172;28;20048;-72
2021/10/07 09:11:30;;;;;;;11.15;5.35;;;11.70;99.90;;;;;;8369007;28;20055;-73
2021/10/07 09:15:32;;;;;;;8.25;5.38;;;11.70;99.90;;;;;;8365091;28;20048;-72
2021/10/07 09:19:39;;;;;;;10.30;5.60;;;11.80;99.90;;;;;;8346738;28;20114;-72
2021/10/07 09:23:41;;;;;;;13.05;6.30;;;11.80;99.90;;;;;;8359107;28;20060;-72
2021/10/07 09:27:42;;;;;;;10.00;5.93;;;11.80;99.90;;;;;;8361471;28;20048;-72
2021/10/07 09:31:44;;;;;;;10.38;6.32;;;11.90;99.90;;;;;;8362224;28;20151;-72
2021/10/07 09:35:46;;;;;;;9.75;5.75;;;11.90;99.90;;;;;;8366828;28;20044;-72
2021/10/07 09:39:50;;;;;;;11.57;6.60;;;12.00;99.90;;;;;;8371394;28;20045;-72
2021/10/07 09:43:53;;;;;;;10.77;6.45;;;12.10;99.90;;;;;;8361158;28;20495;-72
2021/10/07 09:48:04;;;;;;;9.98;5.70;;;12.20;99.90;;;;;;8368821;28;20077;-73
2021/10/07 09:52:06;;;;;;;10.90;6.68;;;12.40;99.90;;;;;;8372624;28;20044;-72
2021/10/07 09:56:07;;;;;;;12.32;8.10;;;12.50;99.90;;;;;;8370615;28;20515;-72
2021/10/07 10:00:12;;;;;;;12.98;7.85;;;12.50;99.90;;;;;;8369658;28;20045;-72
2021/10/07 10:04:15;;;;;;;11.88;7.15;;;12.60;99.90;;;;;;8367518;28;20404;-72
2021/10/07 10:08:17;;;;;;;;;;;12.60;99.90;;;;;;8369897;28;20053;-73
2021/10/07 10:12:19;;;;;;;;;;;12.90;99.90;;;;;;8369943;28;19920;-72
2021/10/07 10:16:22;;;;;;;;;;;13.00;99.90;;;;;;8365051;28;19928;-72
2021/10/07 10:20:27;;;;;;;;;;;13.10;99.90;;;;;;8359679;28;19932;-72
2021/10/07 10:24:29;;;;;;;;;;;13.20;99.90;;;;;;8357869;28;19921;-72
2021/10/07 10:28:49;;;;;;;;;;;13.20;99.90;;;;;;8356266;28;19939;-72
2021/10/07 10:32:51;;;;;;;;;;;13.30;99.90;;;;;;8352990;28;19920;-72
2021/10/07 10:36:55;;;;;;;;;;;13.30;99.90;;;;;;8359106;28;19924;-72
2021/10/07 10:41:10;;;;;;;;;;;13.40;99.90;;;;;;8356827;28;20170;-72
2021/10/07 10:45:11;;;;;;;;;;;13.30;99.90;;;;;;8370869;28;25116;-72
2021/10/07 10:49:13;;;;;;;;;;;13.20;99.90;;;;;;8354054;28;25083;-72
2021/10/07 10:53:21;;;;;;;;;;;13.20;99.90;;;;;;8354937;28;19920;-72
2021/10/07 10:57:31;;;;;;;;;;;13.30;99.90;;;;;;8359023;28;20466;-72
2021/10/07 11:01:33;;;;;;;;;;;13.30;99.90;;;;;;8356500;28;19924;-72
2021/10/07 11:05:40;;;;;;;;;;;13.30;99.90;;;;;;8362921;28;19921;-72
2021/10/07 11:09:52;;;;;;;;;;;13.30;99.90;;;;;;8371683;28;19924;-73
2021/10/07 11:13:55;;;;;;;;;;;13.20;99.90;;;;;;8355254;28;19925;-72
2021/10/07 11:17:57;;;;;;;;;;;13.30;99.90;;;;;;8354722;28;19939;-72
2021/10/07 11:22:09;;;;;;;;;;;13.30;99.90;;;;;;8353852;28;20376;-72
2021/10/07 11:26:11;;;;;;;;;;;13.30;99.90;;;;;;8356257;28;19924;-72
2021/10/07 11:30:14;;;;;;;;;;;13.40;99.90;;;;;;8374104;28;19925;-72
2021/10/07 11:34:16;;;;;;;;;;;13.40;99.90;;;;;;8357529;28;24079;-72
2021/10/07 11:38:17;;;;;;;;;;;13.40;99.90;;;;;;8354273;28;19925;-73
2021/10/07 11:42:38;;;;;;;;;;;13.50;99.90;;;;;;8337940;28;20357;-73
2021/10/07 11:46:40;;;;;;;;;;;13.60;99.90;;;;;;8340013;28;20268;-72
2021/10/07 11:50:43;;;;;;;;;;;13.70;99.90;;;;;;8355461;28;20384;-72
2021/10/07 11:54:46;;;;;;;;;;;13.80;99.90;;;;;;8354796;28;19936;-71
2021/10/07 11:58:51;;;;;;;;;;;13.80;99.90;;;;;;8353790;28;20298;-73
2021/10/07 12:03:11;;;;;;;;;;;13.80;99.90;;;;;;8369045;28;19942;-72
2021/10/07 12:07:13;;;;;;;;;;;13.90;99.90;;;;;;8354306;28;19941;-72
2021/10/07 12:11:18;;;;;;;;;;;14.00;99.90;;;;;;8374292;28;19925;-72
2021/10/07 12:15:20;;;;;;;;;;;14.20;99.90;;;;;;8358304;28;19924;-72
2021/10/07 12:19:26;;;;;;;;;;;14.40;99.90;;;;;;8354702;28;19980;-72
2021/10/07 12:23:28;;;;;;;;;;;14.60;99.90;;;;;;8354510;28;19982;-71
2021/10/07 12:27:31;;;;;;;;;;;14.70;99.90;;;;;;8352622;28;19931;-72
2021/10/07 12:31:32;;;;;;;;;;;14.70;99.90;;;;;;8355615;28;19920;-72
2021/10/07 12:35:34;;;;;;;;;;;14.70;99.90;;;;;;8362896;28;19928;-72
2021/10/07 12:39:55;;;;;;;;;;;14.80;99.90;;;;;;8352244;28;19925;-71
2021/10/07 12:43:58;;;;;;;;;;;14.80;99.90;;;;;;8353522;28;19978;-72
2021/10/07 12:47:59;;;;;;;;;;;14.70;99.90;;;;;;8353025;28;19929;-71
2021/10/07 12:52:10;;;;;;;;;;;14.70;99.90;;;;;;8340139;28;20284;-72
2021/10/07 12:56:12;;;;;;;;;;;14.70;99.90;;;;;;8353101;28;19920;-72
2021/10/07 13:00:35;;;;;;;;;;;14.70;99.90;;;;;;8353593;28;19921;-73
2021/10/07 13:04:44;;;;;;;;;;;14.70;99.90;;;;;;8351414;28;19921;-72
2021/10/07 13:08:45;;;;;;;;;;;14.80;99.90;;;;;;8350935;28;19920;-71
2021/10/07 13:12:47;;;;;;;;;;;15.00;99.90;;;;;;8355893;28;19927;-71
2021/10/07 13:16:49;;;;;;;;;;;15.10;99.90;;;;;;8355833;28;19947;-72
2021/10/07 13:20:52;;;;;;;;;;;15.30;99.90;;;;;;8361011;28;21422;-71
2021/10/07 13:24:55;;;;;;;;;;;15.30;99.90;;;;;;8363226;28;20551;-72
2021/10/07 13:28:57;;;;;;;;;;;15.40;99.90;;;;;;8363350;28;20295;-72
2021/10/07 13:32:59;;;;;;;;;;;15.30;99.90;;;;;;8357097;28;20047;-72
2021/10/07 13:37:01;;;;;;;;;;;15.30;99.90;;;;;;8362030;28;19928;-72
2021/10/07 13:41:02;;;;;;;;;;;15.30;99.90;;;;;;8344646;28;20007;-71
2021/10/07 13:45:04;;;;;;;;;;;15.40;99.90;;;;;;8359398;28;20292;-71
2021/10/07 13:49:06;;;;;;;;;;;15.50;99.90;;;;;;8359292;28;20360;-72
2021/10/07 13:53:08;;;;;;;;;;;15.50;99.90;;;;;;8361029;28;19925;-71
2021/10/07 13:57:09;;;;;;;;;;;15.60;99.90;;;;;;8360894;28;19924;-72
2021/10/07 14:01:11;;;;;;;;;;;15.60;99.90;;;;;;8361152;28;19925;-72
2021/10/07 14:05:13;;;;;;;;;;;15.60;99.90;;;;;;8371579;28;20283;-72
2021/10/07 14:09:15;;;;;;;;;;;15.60;99.90;;;;;;8354391;28;19943;-71
2021/10/07 14:13:17;;;;;;;;;;;15.70;99.90;;;;;;8357571;28;19921;-71
2021/10/07 14:17:19;;;;;;;;;;;15.70;99.90;;;;;;8357181;28;19927;-72
2021/10/07 14:21:20;;;;;;;;;;;15.70;99.90;;;;;;8358769;28;19928;-71
2021/10/07 14:25:22;;;;;;;;;;;15.70;99.90;;;;;;8359202;28;20499;-71
2021/10/07 14:29:25;;;;;;;;;;;15.80;99.90;;;;;;8356304;28;19924;-71
2021/10/07 14:33:27;;;;;;;;;;;15.80;99.90;;;;;;8361932;28;20485;-71
2021/10/07 14:37:28;;;;;;;;;;;15.90;99.90;;;;;;8359050;28;19921;-72
2021/10/07 14:41:30;;;;;;;;;;;15.90;99.90;;;;;;8359617;28;20435;-72
2021/10/07 14:45:32;;;;;;;;;;;16.00;99.90;;;;;;8360417;28;20240;-72
2021/10/07 14:49:34;;;;;;;;;;;16.00;99.90;;;;;;8359800;28;19928;-72
2021/10/07 14:53:36;;;;;;;;;;;16.00;99.90;;;;;;8359036;28;19927;-72
2021/10/07 14:57:38;;;;;;;;;;;16.00;99.90;;;;;;8370401;28;20329;-71
2021/10/07 15:01:39;;;;;;;;;;;16.00;99.90;;;;;;8357242;28;19947;-71
2021/10/07 15:05:56;;;;;;;;;;;16.00;99.90;;;;;;8355527;28;19920;-72
2021/10/07 15:09:58;;;;;;;;;;;15.90;99.90;;;;;;8372205;28;19928;-71
2021/10/07 15:14:00;;;;;;;;;;;15.90;99.90;;;;;;8371586;28;19929;-72
2021/10/07 15:18:01;;;;;;;;;;;15.80;99.90;;;;;;8355971;28;19978;-72
2021/10/07 15:22:04;;;;;;;;;;;15.70;99.90;;;;;;8353862;28;20616;-72
2021/10/07 15:26:05;;;;;;;;;;;15.70;99.90;;;;;;8355358;28;19940;-72
2021/10/07 15:30:07;;;;;;;;;;;15.70;99.90;;;;;;8351527;28;19925;-71
2021/10/07 15:34:09;;;;;;;;;;;15.70;99.90;;;;;;8353132;28;19940;-71
2021/10/07 15:38:11;;;;;;;;;;;15.70;99.90;;;;;;8374400;28;19970;-71
2021/10/07 15:42:13;;;;;;;;;;;15.70;99.90;;;;;;8356748;28;19963;-72
2021/10/07 15:46:16;;;;;;;;;;;15.70;99.90;;;;;;8355495;28;20000;-71
2021/10/07 15:50:18;;;;;;;;;;;15.60;99.90;;;;;;8352118;28;20014;-71
2021/10/07 15:54:21;;;;;;;;;;;15.70;99.90;;;;;;8354800;28;20343;-71
2021/10/07 15:58:23;;;;;;;;;;;15.70;99.90;;;;;;8362190;28;19983;-72
2021/10/07 16:02:25;;;;;;;;;;;15.70;99.90;;;;;;8357615;28;19924;-71
2021/10/07 16:06:27;;;;;;;;;;;15.70;99.90;;;;;;8352907;28;20220;-72
2021/10/07 16:10:29;;;;;;;;;;;15.80;99.90;;;;;;8351737;28;19920;-71
2021/10/07 16:14:31;;;;;;;;;;;15.80;99.90;;;;;;8354853;28;20279;-71
2021/10/07 16:18:32;;;;;;;;;;;15.70;99.90;;;;;;8357139;28;19924;-72
2021/10/07 16:22:35;;;;;;;;;;;15.70;99.90;;;;;;8353667;28;19927;-71
2021/10/07 16:26:37;;;;;;;;;;;15.60;99.90;;;;;;8337591;28;19967;-72
2021/10/07 16:30:39;;;;;;;;;;;15.50;99.90;;;;;;8370650;28;19925;-71
2021/10/07 16:34:41;;;;;;;;;;;15.50;99.90;;;;;;8339503;28;20462;-72
2021/10/07 16:38:42;;;;;;;;;;;15.40;99.90;;;;;;8358063;28;19974;-72
2021/10/07 16:42:44;;;;;;;;;;;15.30;99.90;;;;;;8356820;28;19932;-72
2021/10/07 16:46:45;;;;;;;;;;;15.20;99.90;;;;;;8353882;28;19996;-71
2021/10/07 16:50:47;;;;;;;;;;;15.10;99.90;;;;;;8359209;28;19975;-72
2021/10/07 16:54:49;;;;;;;;;;;15.00;99.90;;;;;;8355033;28;19928;-72
2021/10/07 16:58:51;;;;;;;;;;;14.90;99.90;;;;;;8354483;28;19925;-72
2021/10/07 17:02:53;;;;;;;;;;;14.70;99.90;;;;;;8368427;28;20363;-72
2021/10/07 17:06:54;;;;;;;;;;;14.70;99.90;;;;;;8353133;28;19921;-72
2021/10/07 17:10:57;;;;;;;;;;;14.50;99.90;;;;;;8356359;28;19944;-71
2021/10/07 17:14:59;;;;;;;;;;;14.40;99.90;;;;;;8352979;28;19920;-71
2021/10/07 17:19:00;;;;;;;;;;;14.30;99.90;;;;;;8356175;28;19947;-71
2021/10/07 17:23:02;;;;;;;;;;;14.30;99.90;;;;;;8357017;28;20295;-72
2021/10/07 17:27:04;;;;;;;;;;;14.20;99.90;;;;;;8372975;28;20034;-71
2021/10/07 17:31:06;;;;;;;;;;;14.10;99.90;;;;;;8360547;28;19948;-71
2021/10/07 17:35:08;;;;;;;;;;;14.00;99.90;;;;;;8358476;28;20655;-73
2021/10/07 17:39:10;;;;;;;;;;;13.90;99.90;;;;;;8357631;28;19935;-71
2021/10/07 17:43:12;;;;;;;;;;;13.80;99.90;;;;;;8375396;28;19925;-72
2021/10/07 17:47:14;;;;;;;;;;;13.70;99.90;;;;;;8358291;28;19920;-71
2021/10/07 17:51:16;;;;;;;;;;;13.70;99.90;;;;;;8358138;28;19920;-72
2021/10/07 17:55:17;;;;;;;;;;;13.60;99.90;;;;;;8373756;28;19921;-72
2021/10/07 17:59:19;;;;;;;;;;;13.50;99.90;;;;;;8359947;28;19928;-72
2021/10/07 18:03:20;;;;;;;;;;;13.50;99.90;;;;;;8358225;28;19928;-71
2021/10/07 18:07:22;;;;;;;;;;;13.40;99.90;;;;;;8373399;28;19925;-72
2021/10/07 18:11:24;;;;;;;;;;;13.40;99.90;;;;;;8358401;28;19924;-71
2021/10/07 18:15:26;;;;;;;;;;;13.30;99.90;;;;;;8360213;28;20592;-72
2021/10/07 18:19:27;;;;;;;;;;;13.30;99.90;;;;;;8354584;28;19943;-72
2021/10/07 18:23:30;;;;;;;;;;;13.20;99.90;;;;;;8355651;28;19921;-72
2021/10/07 18:27:32;;;;;;;;;;;13.20;99.90;;;;;;8360487;28;20339;-72
2021/10/07 18:31:34;;;;;;;;;;;13.10;99.90;;;;;;8358206;28;19920;-72
2021/10/07 18:35:36;;;;;;;;;;;13.10;99.90;;;;;;8377829;28;19927;-72
2021/10/07 18:39:37;;;;;;;;;;;13.10;99.90;;;;;;8363164;28;19929;-72
2021/10/07 18:43:39;;;;;;;;;;;13.10;99.90;;;;;;8358871;28;19924;-72
2021/10/07 18:47:41;;;;;;;;;;;13.10;99.90;;;;;;8359614;28;19929;-72
2021/10/07 18:51:43;;;;;;;;;;;13.10;99.90;;;;;;8359230;28;19920;-72
2021/10/07 18:55:45;;;;;;;;;;;13.00;99.90;;;;;;8359478;28;19931;-72
2021/10/07 18:59:49;;;;;;;;;;;13.00;99.90;;;;;;8359748;28;19924;-72
2021/10/07 19:03:51;;;;;;;;;;;13.00;99.90;;;;;;8360714;28;19929;-72
2021/10/07 19:07:54;;;;;;;;;;;12.90;99.90;;;;;;8361235;28;20350;-72
2021/10/07 19:11:56;;;;;;;;;;;12.90;99.90;;;;;;8360076;28;20015;-73
2021/10/07 19:15:58;;;;;;;;;;;12.80;99.90;;;;;;8364557;28;19924;-72
2021/10/07 19:20:00;;;;;;;;;;;12.80;99.90;;;;;;8363490;28;20036;-72
2021/10/07 19:24:02;;;;;;;;;;;12.80;99.90;;;;;;8357402;28;19925;-72
2021/10/07 19:28:03;;;;;;;;;;;12.70;99.90;;;;;;8360849;28;19932;-72
2021/10/07 19:32:05;;;;;;;;;;;12.70;99.90;;;;;;8360278;28;19932;-72
2021/10/07 19:36:08;;;;;;;;;;;12.70;99.90;;;;;;8358490;28;19925;-72
2021/10/07 19:40:10;;;;;;;;;;;12.70;99.90;;;;;;8357660;28;19928;-72
2021/10/07 19:44:12;;;;;;;;;;;12.60;99.90;;;;;;8360078;28;19920;-72
2021/10/07 19:48:14;;;;;;;;;;;12.60;99.90;;;;;;8354425;28;19924;-72
2021/10/07 19:52:16;;;;;;;;;;;12.60;99.90;;;;;;8353004;28;19939;-72
2021/10/07 19:56:18;;;;;;;;;;;12.50;99.90;;;;;;8338099;28;19978;-72
2021/10/07 20:00:20;;;;;;;;;;;12.50;99.90;;;;;;8354866;28;19990;-72
2021/10/07 20:04:21;;;;;;;;;;;12.40;99.90;;;;;;8355793;28;19931;-72
2021/10/07 20:08:23;;;;;;;;;;;12.40;99.90;;;;;;8337873;28;19982;-72
2021/10/07 20:12:24;;;;;;;;;;;12.40;99.90;;;;;;8355330;28;19927;-72
2021/10/07 20:16:26;;;;;;;;;;;12.30;99.90;;;;;;8355497;28;20334;-72
2021/10/07 20:20:28;;;;;;;;;;;12.30;99.90;;;;;;8359793;28;19938;-72
2021/10/07 20:24:30;;;;;;;;;;;12.30;99.90;;;;;;8354289;28;19925;-72
2021/10/07 20:28:33;;;;;;;;;;;12.30;99.90;;;;;;8357041;28;19924;-72
2021/10/07 20:32:35;;;;;;;;;;;12.20;99.90;;;;;;8354408;28;19931;-72
2021/10/07 20:40:38;;;;;;;;;;;12.00;99.90;;;;;;8353230;28;20395;-72
2021/10/07 20:44:40;;;;;;;;;;;12.00;99.90;;;;;;8371114;28;19936;-72
2021/10/07 20:48:42;;;;;;;;;;;12.00;99.90;;;;;;8358318;28;19947;-72
2021/10/07 20:52:44;;;;;;;;;;;12.00;99.90;;;;;;8363454;28;19925;-72
2021/10/07 20:56:45;;;;;;;;;;;11.90;99.90;;;;;;8363366;28;19928;-72
2021/10/07 21:00:47;;;;;;;;;;;11.90;99.90;;;;;;8366419;28;19943;-72
2021/10/07 21:04:49;;;;;;;;;;;11.90;99.90;;;;;;8387620;28;20042;-72
2021/10/07 21:08:50;;;;;;;;;;;11.90;99.90;;;;;;8390252;28;19974;-72
2021/10/07 21:12:52;;;;;;;;;;;11.90;99.90;;;;;;8395150;28;19920;-72
2021/10/07 21:16:54;;;;;;;;;;;11.90;99.90;;;;;;8392435;28;19920;-72
2021/10/07 21:20:55;;;;;;;;;;;11.90;99.90;;;;;;8388014;28;19921;-72
2021/10/07 21:24:57;;;;;;;;;;;11.80;99.90;;;;;;8391705;28;19928;-72
2021/10/07 21:28:59;;;;;;;;;;;11.80;99.90;;;;;;8393129;28;19931;-72
2021/10/07 21:33:03;;;;;;;;;;;11.70;99.90;;;;;;8387920;28;19924;-73
2021/10/07 21:37:04;;;;;;;;;;;11.80;99.90;;;;;;8389375;28;25073;-72
2021/10/07 21:41:06;;;;;;;;;;;11.70;99.90;;;;;;8393974;28;19970;-72
2021/10/07 21:45:08;;;;;;;;;;;11.70;99.90;;;;;;8389475;28;20369;-72
2021/10/07 21:49:10;;;;;;;;;;;11.70;99.90;;;;;;8384250;28;19939;-72
2021/10/07 21:53:11;;;;;;;;;;;11.60;99.90;;;;;;8389769;28;20316;-72
2021/10/07 21:57:13;;;;;;;;;;;11.60;99.90;;;;;;8388686;28;24087;-72
2021/10/07 22:01:15;;;;;;;;;;;11.60;99.90;;;;;;8392931;28;20299;-72
2021/10/07 22:05:17;;;;;;;;;;;11.50;99.90;;;;;;8390729;28;19968;-72
2021/10/07 22:09:19;;;;;;;;;;;11.50;99.90;;;;;;8391197;28;20297;-72
2021/10/07 22:13:20;;;;;;;;;;;11.50;99.90;;;;;;8402542;28;20026;-72
2021/10/07 22:17:22;;;;;;;;;;;11.50;99.90;;;;;;8389475;28;20351;-72
2021/10/07 22:21:24;;;;;;;;;;;11.50;99.90;;;;;;8381223;28;20360;-72
2021/10/07 22:25:26;;;;;;;;;;;11.50;99.90;;;;;;8401076;28;19920;-72
2021/10/07 22:29:28;;;;;;;;;;;11.50;99.90;;;;;;8403557;28;20613;-72
2021/10/07 22:33:29;;;;;;;;;;;11.50;99.90;;;;;;8384855;28;19951;-72
2021/10/07 22:37:31;;;;;;;;;;;11.50;99.90;;;;;;8385060;28;20261;-72
2021/10/07 22:41:33;;;;;;;;;;;11.50;99.90;;;;;;8370423;28;19960;-72
2021/10/07 22:45:34;;;;;;;;;;;11.50;99.90;;;;;;8389926;28;19974;-72
2021/10/07 22:49:36;;;;;;;;;;;11.40;99.90;;;;;;8388229;28;19924;-72
2021/10/07 22:53:38;;;;;;;;;;;11.40;99.90;;;;;;8368989;28;19975;-72
2021/10/07 22:57:39;;;;;;;;;;;11.40;99.90;;;;;;8404973;28;19935;-72
2021/10/07 23:01:41;;;;;;;;;;;11.40;99.90;;;;;;8391695;28;19989;-73
2021/10/07 23:05:43;;;;;;;;;;;11.40;99.90;;;;;;8382481;28;20015;-72
2021/10/07 23:09:45;;;;;;;;;;;11.40;99.90;;;;;;8383627;28;19966;-72
2021/10/07 23:13:46;;;;;;;;;;;11.40;99.90;;;;;;8364668;28;19974;-72
2021/10/07 23:17:48;;;;;;;;;;;11.40;99.90;;;;;;8389083;28;19962;-72
2021/10/07 23:21:49;;;;;;;;;;;11.40;99.90;;;;;;8396713;28;19924;-72
2021/10/07 23:25:51;;;;;;;;;;;11.40;99.90;;;;;;8390074;28;19921;-72